»·PEaware :: AAL73 KLAS-KSNA

AAL73 :: KLAS-KSNA

FLIGHT INFORMATION

Flight Status: Arrived
Operator:
American Airlines
More flights by this operator :: More flights under this callsign
Pilot: Dean L. (8400)
Aircraft: BOEING 737-300
(B733)
More flights by this aircraft type
Origin: KLAS McCarran Intl
United States
Destination: KSNA John Wayne-Orange Co
United States
More flights between these airports :: More routes between these airports
Route: RADYR1 SLVRR FEYLA DSNEE4
File this flight plan on PilotEdge
Remarks: RMK / SIMBRIEF
Altitude:
(Current/Filed)
32,000ft
Speed:
(Current/Filed)
431kts
Departed: 04-Apr-21 03:31 PM
Arrived: 04-Apr-21 04:16 PM
Distance/Time
Traveled:
197nm/0:44
Distance/Time
To Go:
Arrived

Flight Plot

Page will automatically refresh every two minutes.

Flight plan parsing failed; only flown route is shown


Map Options




Map Legend


Flown Route
Filed Route
Departure Airport
Arrival Airport
Navaid (VOR, NDB)
Fix

Horizontal Profiles

Position Reports

Time Latitude Longitude Heading Altitude Ground
Speed
04-Apr-21 14:57 36.086544 -115.153623 105 2125ft 0kts
04-Apr-21 14:58 36.086544 -115.153623 105 2125ft 0kts
04-Apr-21 14:59 36.086544 -115.153623 105 2125ft 0kts
04-Apr-21 15:00 36.086544 -115.153623 105 2125ft 0kts
04-Apr-21 15:01 36.086544 -115.153623 105 2125ft 0kts
04-Apr-21 15:02 36.086544 -115.153623 105 2125ft 0kts
04-Apr-21 15:03 36.086544 -115.153623 105 2125ft 0kts
04-Apr-21 15:04 36.086544 -115.153623 105 2125ft 0kts
04-Apr-21 15:05 36.086544 -115.153623 105 2125ft 0kts
04-Apr-21 15:06 36.086544 -115.153623 105 2125ft 0kts
04-Apr-21 15:07 36.086544 -115.153623 105 2125ft 0kts
04-Apr-21 15:08 36.086544 -115.153623 105 2125ft 0kts
04-Apr-21 15:09 36.086544 -115.153623 105 2125ft 0kts
04-Apr-21 15:10 36.086544 -115.153623 105 2125ft 0kts
04-Apr-21 15:11 36.086544 -115.153623 105 2125ft 0kts
04-Apr-21 15:12 36.086544 -115.153622 105 2125ft 0kts
04-Apr-21 15:13 36.086544 -115.153622 105 2125ft 0kts
04-Apr-21 15:14 36.086544 -115.153622 105 2125ft 0kts
04-Apr-21 15:15 36.086544 -115.153622 105 2125ft 0kts
04-Apr-21 15:16 36.086544 -115.153622 105 2125ft 0kts
04-Apr-21 15:17 36.086544 -115.153622 105 2125ft 0kts
04-Apr-21 15:18 36.086544 -115.153622 105 2125ft 0kts
04-Apr-21 15:19 36.086544 -115.153622 105 2125ft 0kts
04-Apr-21 15:20 36.086589 -115.153816 105 2125ft 2kts
04-Apr-21 15:21 36.087711 -115.154569 341 2125ft 13kts
04-Apr-21 15:22 36.091946 -115.154907 8 2125ft 30kts
04-Apr-21 15:23 36.097115 -115.152249 21 2125ft 10kts
04-Apr-21 15:24 36.097491 -115.152102 345 2125ft 0kts
04-Apr-21 15:25 36.097493 -115.152102 345 2125ft 0kts
04-Apr-21 15:26 36.098042 -115.152737 296 2125ft 0kts
04-Apr-21 15:27 36.098042 -115.152739 296 2125ft 0kts
04-Apr-21 15:28 36.098043 -115.152740 296 2125ft 0kts
04-Apr-21 15:29 36.098043 -115.152741 296 2125ft 0kts
04-Apr-21 15:30 36.081925 -115.163422 204 2128ft 203kts
04-Apr-21 15:31 36.031812 -115.190287 199 6187ft 209kts
04-Apr-21 15:32 35.962535 -115.222238 201 8397ft 253kts
04-Apr-21 15:33 35.885329 -115.258471 202 12742ft 334kts
04-Apr-21 15:34 35.794426 -115.301184 204 18007ft 370kts
04-Apr-21 15:35 35.682641 -115.353680 203 18992ft 475kts
04-Apr-21 15:36 35.566063 -115.437669 229 19013ft 494kts
04-Apr-21 15:37 35.485481 -115.555211 231 24903ft 399kts
04-Apr-21 15:38 35.410658 -115.655433 232 28025ft 403kts
04-Apr-21 15:39 35.348206 -115.739353 232 29409ft 411kts
04-Apr-21 15:40 35.270485 -115.843111 232 30839ft 414kts
04-Apr-21 15:41 35.191793 -115.946068 231 32105ft 423kts
04-Apr-21 15:42 35.106746 -116.052802 230 32011ft 446kts
04-Apr-21 15:43 35.020046 -116.161766 230 32010ft 449kts
04-Apr-21 15:44 34.932812 -116.271050 230 32025ft 450kts
04-Apr-21 15:45 34.845632 -116.380722 230 32021ft 450kts
04-Apr-21 15:46 34.759057 -116.491215 230 32026ft 450kts
04-Apr-21 15:47 34.680836 -116.587848 226 31150ft 370kts
04-Apr-21 15:48 34.596074 -116.670579 223 28456ft 396kts
04-Apr-21 15:49 34.511613 -116.752401 223 25760ft 382kts
04-Apr-21 15:50 34.438223 -116.836109 228 24458ft 332kts
04-Apr-21 15:51 34.373697 -116.910950 227 22768ft 316kts
04-Apr-21 15:52 34.309948 -116.984774 226 19824ft 334kts
04-Apr-21 15:53 34.234053 -117.059480 212 15043ft 369kts
04-Apr-21 15:54 34.148788 -117.115266 207 13482ft 306kts
04-Apr-21 15:56 34.091747 -117.145505 207 12868ft 259kts
04-Apr-21 15:57 34.026398 -117.180295 206 10912ft 256kts
04-Apr-21 15:58 33.971398 -117.230456 236 8839ft 252kts
04-Apr-21 15:59 33.926286 -117.294279 232 8347ft 251kts
04-Apr-21 16:00 33.881273 -117.358183 232 8149ft 250kts
04-Apr-21 16:01 33.835878 -117.422293 232 7906ft 252kts
04-Apr-21 16:02 33.804062 -117.492126 254 7610ft 243kts
04-Apr-21 16:03 33.828297 -117.551368 357 7492ft 236kts
04-Apr-21 16:04 33.859690 -117.493765 77 6776ft 227kts
04-Apr-21 16:05 33.899893 -117.459061 325 6309ft 209kts
04-Apr-21 16:06 33.903844 -117.524427 261 6282ft 206kts
04-Apr-21 16:07 33.893593 -117.591067 262 5429ft 196kts
04-Apr-21 16:08 33.883595 -117.654995 261 4509ft 194kts
04-Apr-21 16:09 33.873024 -117.713921 243 4244ft 177kts
04-Apr-21 16:10 33.841092 -117.758439 210 3499ft 176kts
04-Apr-21 16:11 33.799882 -117.789256 207 2649ft 172kts
04-Apr-21 16:12 33.762617 -117.813584 207 1849ft 140kts
04-Apr-21 16:13 33.730939 -117.833967 209 1194ft 123kts
04-Apr-21 16:14 33.700692 -117.853841 206 595ft 121kts
04-Apr-21 16:14 33.675643 -117.869055 203 67ft 97kts
04-Apr-21 16:16 33.669296 -117.871803 128 66ft 7kts
04-Apr-21 16:17 33.671694 -117.868286 58 67ft 4kts
04-Apr-21 16:18 33.671674 -117.867853 98 67ft 0kts
04-Apr-21 16:18 33.671673 -117.867842 98 67ft 0kts

Navigation Log

Ident Type
Flight plan parsing failed, navigation log unavailable